sensor_id;sensor_type;location;lat;lon;timestamp;temperature;humidity
31809;DHT22;18379;48.208;-1.518;2023-12-07T00:01:59;6.10;99.90
31809;DHT22;18379;48.208;-1.518;2023-12-07T00:07:00;6.20;99.90
31809;DHT22;18379;48.208;-1.518;2023-12-07T00:12:01;6.20;99.90
31809;DHT22;18379;48.208;-1.518;2023-12-07T00:17:01;6.20;99.90
31809;DHT22;18379;48.208;-1.518;2023-12-07T00:22:02;6.20;99.90
31809;DHT22;18379;48.208;-1.518;2023-12-07T00:27:03;6.20;99.90
31809;DHT22;18379;48.208;-1.518;2023-12-07T00:32:04;6.20;99.90
31809;DHT22;18379;48.208;-1.518;2023-12-07T00:37:05;6.20;99.90
31809;DHT22;18379;48.208;-1.518;2023-12-07T00:42:06;6.10;99.90
31809;DHT22;18379;48.208;-1.518;2023-12-07T00:47:07;6.20;99.90
31809;DHT22;18379;48.208;-1.518;2023-12-07T00:52:07;6.20;99.90
31809;DHT22;18379;48.208;-1.518;2023-12-07T00:57:08;6.20;99.90
31809;DHT22;18379;48.208;-1.518;2023-12-07T01:02:08;6.20;99.90
31809;DHT22;18379;48.208;-1.518;2023-12-07T01:07:09;6.20;99.90
31809;DHT22;18379;48.208;-1.518;2023-12-07T01:12:10;6.10;99.90
31809;DHT22;18379;48.208;-1.518;2023-12-07T01:17:11;6.10;99.90
31809;DHT22;18379;48.208;-1.518;2023-12-07T01:22:11;6.20;99.90
31809;DHT22;18379;48.208;-1.518;2023-12-07T01:27:12;6.20;99.90
31809;DHT22;18379;48.208;-1.518;2023-12-07T01:32:13;6.20;99.90
31809;DHT22;18379;48.208;-1.518;2023-12-07T01:37:13;6.30;99.90
31809;DHT22;18379;48.208;-1.518;2023-12-07T01:42:14;6.30;99.90
31809;DHT22;18379;48.208;-1.518;2023-12-07T01:47:15;6.30;99.90
31809;DHT22;18379;48.208;-1.518;2023-12-07T01:52:16;6.20;99.90
31809;DHT22;18379;48.208;-1.518;2023-12-07T01:57:17;6.30;99.90
31809;DHT22;18379;48.208;-1.518;2023-12-07T02:02:19;6.30;99.90
31809;DHT22;18379;48.208;-1.518;2023-12-07T02:07:19;6.30;99.90
31809;DHT22;18379;48.208;-1.518;2023-12-07T02:12:21;6.30;99.90
31809;DHT22;18379;48.208;-1.518;2023-12-07T02:17:28;6.40;99.90
31809;DHT22;18379;48.208;-1.518;2023-12-07T02:22:46;6.30;99.90
31809;DHT22;18379;48.208;-1.518;2023-12-07T02:27:48;6.40;99.90
31809;DHT22;18379;48.208;-1.518;2023-12-07T02:32:49;6.30;99.90
31809;DHT22;18379;48.208;-1.518;2023-12-07T02:37:50;6.20;99.90
31809;DHT22;18379;48.208;-1.518;2023-12-07T02:42:52;6.20;99.90
31809;DHT22;18379;48.208;-1.518;2023-12-07T02:47:53;6.20;99.90
31809;DHT22;18379;48.208;-1.518;2023-12-07T02:52:54;6.30;99.90
31809;DHT22;18379;48.208;-1.518;2023-12-07T02:57:56;6.20;99.90
31809;DHT22;18379;48.208;-1.518;2023-12-07T03:02:57;6.20;99.90
31809;DHT22;18379;48.208;-1.518;2023-12-07T03:07:57;6.20;99.90
31809;DHT22;18379;48.208;-1.518;2023-12-07T03:12:58;6.20;99.90
31809;DHT22;18379;48.208;-1.518;2023-12-07T03:17:58;6.20;99.90
31809;DHT22;18379;48.208;-1.518;2023-12-07T03:22:59;6.30;99.90
31809;DHT22;18379;48.208;-1.518;2023-12-07T03:28:00;6.30;99.90
31809;DHT22;18379;48.208;-1.518;2023-12-07T03:33:00;6.30;99.90
31809;DHT22;18379;48.208;-1.518;2023-12-07T03:38:01;6.30;99.90
31809;DHT22;18379;48.208;-1.518;2023-12-07T03:43:02;6.40;99.90
31809;DHT22;18379;48.208;-1.518;2023-12-07T03:48:04;6.40;99.90
31809;DHT22;18379;48.208;-1.518;2023-12-07T03:53:05;6.40;99.90
31809;DHT22;18379;48.208;-1.518;2023-12-07T03:58:06;6.40;99.90
31809;DHT22;18379;48.208;-1.518;2023-12-07T04:03:06;6.40;99.90
31809;DHT22;18379;48.208;-1.518;2023-12-07T04:08:07;6.40;99.90
31809;DHT22;18379;48.208;-1.518;2023-12-07T04:13:08;6.30;99.90
31809;DHT22;18379;48.208;-1.518;2023-12-07T04:18:09;6.30;99.90
31809;DHT22;18379;48.208;-1.518;2023-12-07T04:23:09;6.30;99.90
31809;DHT22;18379;48.208;-1.518;2023-12-07T04:28:10;6.30;99.90
31809;DHT22;18379;48.208;-1.518;2023-12-07T04:33:10;6.40;99.90
31809;DHT22;18379;48.208;-1.518;2023-12-07T04:38:11;6.40;99.90
31809;DHT22;18379;48.208;-1.518;2023-12-07T04:43:12;6.40;99.90
31809;DHT22;18379;48.208;-1.518;2023-12-07T04:48:12;6.50;99.90
31809;DHT22;18379;48.208;-1.518;2023-12-07T04:53:13;6.50;99.90
31809;DHT22;18379;48.208;-1.518;2023-12-07T04:58:14;6.50;99.90
31809;DHT22;18379;48.208;-1.518;2023-12-07T05:03:16;6.60;99.90
31809;DHT22;18379;48.208;-1.518;2023-12-07T05:08:16;6.50;99.90
31809;DHT22;18379;48.208;-1.518;2023-12-07T05:13:18;6.50;99.90
31809;DHT22;18379;48.208;-1.518;2023-12-07T05:18:19;6.40;99.90
31809;DHT22;18379;48.208;-1.518;2023-12-07T05:23:19;6.40;99.90
31809;DHT22;18379;48.208;-1.518;2023-12-07T05:28:20;6.60;99.90
31809;DHT22;18379;48.208;-1.518;2023-12-07T05:33:20;6.60;99.90
31809;DHT22;18379;48.208;-1.518;2023-12-07T05:38:21;6.50;99.90
31809;DHT22;18379;48.208;-1.518;2023-12-07T05:43:21;6.60;99.90
31809;DHT22;18379;48.208;-1.518;2023-12-07T05:48:22;6.60;99.90
31809;DHT22;18379;48.208;-1.518;2023-12-07T05:53:23;6.50;99.90
31809;DHT22;18379;48.208;-1.518;2023-12-07T05:58:24;6.50;99.90
31809;DHT22;18379;48.208;-1.518;2023-12-07T06:03:25;6.50;99.90
31809;DHT22;18379;48.208;-1.518;2023-12-07T06:08:26;6.40;99.90
31809;DHT22;18379;48.208;-1.518;2023-12-07T06:13:27;6.30;99.90
31809;DHT22;18379;48.208;-1.518;2023-12-07T06:18:27;6.30;99.90
31809;DHT22;18379;48.208;-1.518;2023-12-07T06:23:28;6.40;99.90
31809;DHT22;18379;48.208;-1.518;2023-12-07T06:28:28;6.40;99.90
31809;DHT22;18379;48.208;-1.518;2023-12-07T06:33:29;6.30;99.90
31809;DHT22;18379;48.208;-1.518;2023-12-07T06:38:30;6.30;99.90
31809;DHT22;18379;48.208;-1.518;2023-12-07T06:43:30;6.20;99.90
31809;DHT22;18379;48.208;-1.518;2023-12-07T06:48:31;6.30;99.90
31809;DHT22;18379;48.208;-1.518;2023-12-07T06:53:32;6.20;99.90
31809;DHT22;18379;48.208;-1.518;2023-12-07T06:58:33;6.20;99.90
31809;DHT22;18379;48.208;-1.518;2023-12-07T07:03:33;6.20;99.90
31809;DHT22;18379;48.208;-1.518;2023-12-07T07:08:35;6.20;99.90
31809;DHT22;18379;48.208;-1.518;2023-12-07T07:13:36;6.10;99.90
31809;DHT22;18379;48.208;-1.518;2023-12-07T07:18:40;6.10;99.90
31809;DHT22;18379;48.208;-1.518;2023-12-07T07:23:41;6.10;99.90
31809;DHT22;18379;48.208;-1.518;2023-12-07T07:28:41;6.20;99.90
31809;DHT22;18379;48.208;-1.518;2023-12-07T07:33:42;6.10;99.90
31809;DHT22;18379;48.208;-1.518;2023-12-07T07:38:43;6.20;99.90
31809;DHT22;18379;48.208;-1.518;2023-12-07T07:43:44;6.10;99.90
31809;DHT22;18379;48.208;-1.518;2023-12-07T07:48:45;6.10;99.90
31809;DHT22;18379;48.208;-1.518;2023-12-07T07:53:46;6.00;99.90
31809;DHT22;18379;48.208;-1.518;2023-12-07T07:58:47;6.10;99.90
31809;DHT22;18379;48.208;-1.518;2023-12-07T08:03:48;6.10;99.90
31809;DHT22;18379;48.208;-1.518;2023-12-07T08:08:48;6.10;99.90
31809;DHT22;18379;48.208;-1.518;2023-12-07T08:13:50;6.00;99.90
31809;DHT22;18379;48.208;-1.518;2023-12-07T08:18:50;6.00;99.90
31809;DHT22;18379;48.208;-1.518;2023-12-07T08:23:51;6.10;99.90
31809;DHT22;18379;48.208;-1.518;2023-12-07T08:28:52;6.00;99.90
31809;DHT22;18379;48.208;-1.518;2023-12-07T08:33:54;6.00;99.90
31809;DHT22;18379;48.208;-1.518;2023-12-07T08:38:55;5.90;99.90
31809;DHT22;18379;48.208;-1.518;2023-12-07T08:43:56;5.90;99.90
31809;DHT22;18379;48.208;-1.518;2023-12-07T08:48:58;6.00;99.90
31809;DHT22;18379;48.208;-1.518;2023-12-07T08:53:58;6.00;99.90
31809;DHT22;18379;48.208;-1.518;2023-12-07T08:58:59;6.00;99.90
31809;DHT22;18379;48.208;-1.518;2023-12-07T09:04:00;6.10;99.90
31809;DHT22;18379;48.208;-1.518;2023-12-07T09:09:01;6.10;99.90
31809;DHT22;18379;48.208;-1.518;2023-12-07T09:14:02;6.10;99.90
31809;DHT22;18379;48.208;-1.518;2023-12-07T09:19:02;6.10;99.90
31809;DHT22;18379;48.208;-1.518;2023-12-07T09:24:03;6.10;99.90
31809;DHT22;18379;48.208;-1.518;2023-12-07T09:29:06;6.00;99.90
31809;DHT22;18379;48.208;-1.518;2023-12-07T09:34:06;5.90;99.90
31809;DHT22;18379;48.208;-1.518;2023-12-07T09:39:08;5.90;99.90
31809;DHT22;18379;48.208;-1.518;2023-12-07T09:44:10;5.90;99.90
31809;DHT22;18379;48.208;-1.518;2023-12-07T09:49:11;6.00;99.90
31809;DHT22;18379;48.208;-1.518;2023-12-07T09:54:11;6.00;99.90
31809;DHT22;18379;48.208;-1.518;2023-12-07T09:59:12;6.00;99.90
31809;DHT22;18379;48.208;-1.518;2023-12-07T10:04:20;6.00;99.90
31809;DHT22;18379;48.208;-1.518;2023-12-07T10:09:23;6.00;99.90
31809;DHT22;18379;48.208;-1.518;2023-12-07T10:14:24;6.00;99.90
31809;DHT22;18379;48.208;-1.518;2023-12-07T10:19:25;6.00;99.90
31809;DHT22;18379;48.208;-1.518;2023-12-07T10:24:25;6.00;99.90
31809;DHT22;18379;48.208;-1.518;2023-12-07T10:29:28;6.00;99.90
31809;DHT22;18379;48.208;-1.518;2023-12-07T10:34:29;6.00;99.90
31809;DHT22;18379;48.208;-1.518;2023-12-07T10:39:30;6.00;99.90
31809;DHT22;18379;48.208;-1.518;2023-12-07T10:44:32;6.00;99.90
31809;DHT22;18379;48.208;-1.518;2023-12-07T10:49:34;6.10;99.90
31809;DHT22;18379;48.208;-1.518;2023-12-07T10:54:47;6.20;99.90
31809;DHT22;18379;48.208;-1.518;2023-12-07T10:59:52;6.20;99.90
31809;DHT22;18379;48.208;-1.518;2023-12-07T11:04:57;6.20;99.90
31809;DHT22;18379;48.208;-1.518;2023-12-07T11:10:11;6.20;99.90
31809;DHT22;18379;48.208;-1.518;2023-12-07T11:15:13;6.20;99.90
31809;DHT22;18379;48.208;-1.518;2023-12-07T11:20:19;6.30;99.90
31809;DHT22;18379;48.208;-1.518;2023-12-07T11:25:19;6.30;99.90
31809;DHT22;18379;48.208;-1.518;2023-12-07T11:30:20;6.40;99.90
31809;DHT22;18379;48.208;-1.518;2023-12-07T11:35:21;6.40;99.90
31809;DHT22;18379;48.208;-1.518;2023-12-07T11:40:22;6.40;99.90
31809;DHT22;18379;48.208;-1.518;2023-12-07T11:45:40;6.40;99.90
31809;DHT22;18379;48.208;-1.518;2023-12-07T11:56:03;6.60;99.90
31809;DHT22;18379;48.208;-1.518;2023-12-07T12:01:04;6.60;99.90
31809;DHT22;18379;48.208;-1.518;2023-12-07T12:06:06;6.70;99.90
31809;DHT22;18379;48.208;-1.518;2023-12-07T12:11:08;6.70;99.90
31809;DHT22;18379;48.208;-1.518;2023-12-07T12:16:09;6.70;99.90
31809;DHT22;18379;48.208;-1.518;2023-12-07T12:21:09;6.80;99.90
31809;DHT22;18379;48.208;-1.518;2023-12-07T12:26:10;6.90;99.90
31809;DHT22;18379;48.208;-1.518;2023-12-07T12:31:11;7.00;99.90
31809;DHT22;18379;48.208;-1.518;2023-12-07T12:36:12;7.00;99.90
31809;DHT22;18379;48.208;-1.518;2023-12-07T12:41:21;7.10;99.90
31809;DHT22;18379;48.208;-1.518;2023-12-07T12:46:22;7.00;99.90
31809;DHT22;18379;48.208;-1.518;2023-12-07T12:51:29;7.00;99.90
31809;DHT22;18379;48.208;-1.518;2023-12-07T12:56:32;6.90;99.90
31809;DHT22;18379;48.208;-1.518;2023-12-07T13:01:33;6.90;99.90
31809;DHT22;18379;48.208;-1.518;2023-12-07T13:06:34;6.80;99.90
31809;DHT22;18379;48.208;-1.518;2023-12-07T13:11:34;6.80;99.90
31809;DHT22;18379;48.208;-1.518;2023-12-07T13:16:35;6.80;99.90
31809;DHT22;18379;48.208;-1.518;2023-12-07T13:21:36;6.80;99.90
31809;DHT22;18379;48.208;-1.518;2023-12-07T13:26:37;6.90;99.90
31809;DHT22;18379;48.208;-1.518;2023-12-07T13:31:37;7.00;99.90
31809;DHT22;18379;48.208;-1.518;2023-12-07T13:36:38;6.90;99.90
31809;DHT22;18379;48.208;-1.518;2023-12-07T13:41:39;7.00;99.90
31809;DHT22;18379;48.208;-1.518;2023-12-07T13:46:41;7.10;99.90
31809;DHT22;18379;48.208;-1.518;2023-12-07T13:51:42;7.00;99.90
31809;DHT22;18379;48.208;-1.518;2023-12-07T13:56:43;6.90;99.90
31809;DHT22;18379;48.208;-1.518;2023-12-07T14:01:43;6.90;99.90
31809;DHT22;18379;48.208;-1.518;2023-12-07T14:06:44;6.90;99.90
31809;DHT22;18379;48.208;-1.518;2023-12-07T14:11:45;6.90;99.90
31809;DHT22;18379;48.208;-1.518;2023-12-07T14:16:45;6.80;99.90
31809;DHT22;18379;48.208;-1.518;2023-12-07T14:21:46;6.80;99.90
31809;DHT22;18379;48.208;-1.518;2023-12-07T14:26:47;6.80;99.90
31809;DHT22;18379;48.208;-1.518;2023-12-07T14:31:49;6.90;99.90
31809;DHT22;18379;48.208;-1.518;2023-12-07T14:36:49;6.90;99.90
31809;DHT22;18379;48.208;-1.518;2023-12-07T14:41:50;6.90;99.90
31809;DHT22;18379;48.208;-1.518;2023-12-07T14:46:51;6.90;99.90
31809;DHT22;18379;48.208;-1.518;2023-12-07T14:51:54;6.90;99.90
31809;DHT22;18379;48.208;-1.518;2023-12-07T14:56:56;6.90;99.90
31809;DHT22;18379;48.208;-1.518;2023-12-07T15:01:57;6.90;99.90
31809;DHT22;18379;48.208;-1.518;2023-12-07T15:06:58;6.90;99.90
31809;DHT22;18379;48.208;-1.518;2023-12-07T15:11:58;6.90;99.90
31809;DHT22;18379;48.208;-1.518;2023-12-07T15:16:59;6.90;99.90
31809;DHT22;18379;48.208;-1.518;2023-12-07T15:22:00;6.90;99.90
31809;DHT22;18379;48.208;-1.518;2023-12-07T15:27:00;6.90;99.90
31809;DHT22;18379;48.208;-1.518;2023-12-07T15:32:01;7.00;99.90
31809;DHT22;18379;48.208;-1.518;2023-12-07T15:37:02;7.00;99.90
31809;DHT22;18379;48.208;-1.518;2023-12-07T15:42:02;7.00;99.90
31809;DHT22;18379;48.208;-1.518;2023-12-07T15:47:03;7.00;99.90
31809;DHT22;18379;48.208;-1.518;2023-12-07T15:52:04;7.10;99.90
31809;DHT22;18379;48.208;-1.518;2023-12-07T15:57:05;7.10;99.90
31809;DHT22;18379;48.208;-1.518;2023-12-07T16:02:06;7.20;99.90
31809;DHT22;18379;48.208;-1.518;2023-12-07T16:07:07;7.20;99.90
31809;DHT22;18379;48.208;-1.518;2023-12-07T16:12:08;7.20;99.90
31809;DHT22;18379;48.208;-1.518;2023-12-07T16:17:10;7.20;99.90
31809;DHT22;18379;48.208;-1.518;2023-12-07T16:22:11;7.20;99.90
31809;DHT22;18379;48.208;-1.518;2023-12-07T16:27:12;7.30;99.90
31809;DHT22;18379;48.208;-1.518;2023-12-07T16:32:12;7.30;99.90
31809;DHT22;18379;48.208;-1.518;2023-12-07T16:37:13;7.30;99.90
31809;DHT22;18379;48.208;-1.518;2023-12-07T16:42:13;7.30;99.90
31809;DHT22;18379;48.208;-1.518;2023-12-07T16:47:14;7.40;99.90
31809;DHT22;18379;48.208;-1.518;2023-12-07T16:52:16;7.50;99.90
31809;DHT22;18379;48.208;-1.518;2023-12-07T16:57:17;7.50;99.90
31809;DHT22;18379;48.208;-1.518;2023-12-07T17:02:18;7.60;99.90
31809;DHT22;18379;48.208;-1.518;2023-12-07T17:07:18;7.50;99.90
31809;DHT22;18379;48.208;-1.518;2023-12-07T17:12:19;7.70;99.90
31809;DHT22;18379;48.208;-1.518;2023-12-07T17:17:20;7.70;99.90
31809;DHT22;18379;48.208;-1.518;2023-12-07T17:22:20;7.70;99.90
31809;DHT22;18379;48.208;-1.518;2023-12-07T17:27:21;7.70;99.90
31809;DHT22;18379;48.208;-1.518;2023-12-07T17:32:22;7.80;99.90
31809;DHT22;18379;48.208;-1.518;2023-12-07T17:37:22;7.90;99.90
31809;DHT22;18379;48.208;-1.518;2023-12-07T17:42:23;7.90;99.90
31809;DHT22;18379;48.208;-1.518;2023-12-07T17:47:24;8.00;99.90
31809;DHT22;18379;48.208;-1.518;2023-12-07T17:52:26;8.00;99.90
31809;DHT22;18379;48.208;-1.518;2023-12-07T17:57:27;8.00;99.90
31809;DHT22;18379;48.208;-1.518;2023-12-07T18:02:27;8.10;99.90
31809;DHT22;18379;48.208;-1.518;2023-12-07T18:07:28;8.10;99.90
31809;DHT22;18379;48.208;-1.518;2023-12-07T18:12:29;8.30;99.90
31809;DHT22;18379;48.208;-1.518;2023-12-07T18:17:29;8.30;99.90
31809;DHT22;18379;48.208;-1.518;2023-12-07T18:22:30;8.30;99.90
31809;DHT22;18379;48.208;-1.518;2023-12-07T18:27:30;8.40;99.90
31809;DHT22;18379;48.208;-1.518;2023-12-07T18:32:31;8.40;99.90
31809;DHT22;18379;48.208;-1.518;2023-12-07T18:37:32;8.50;99.90
31809;DHT22;18379;48.208;-1.518;2023-12-07T18:42:32;8.60;99.90
31809;DHT22;18379;48.208;-1.518;2023-12-07T18:47:33;8.60;99.90
31809;DHT22;18379;48.208;-1.518;2023-12-07T18:52:34;8.70;99.90
31809;DHT22;18379;48.208;-1.518;2023-12-07T18:57:36;8.80;99.90
31809;DHT22;18379;48.208;-1.518;2023-12-07T19:02:36;8.80;99.90
31809;DHT22;18379;48.208;-1.518;2023-12-07T19:07:38;8.80;99.90
31809;DHT22;18379;48.208;-1.518;2023-12-07T19:12:38;8.80;99.90
31809;DHT22;18379;48.208;-1.518;2023-12-07T19:17:39;8.90;99.90
31809;DHT22;18379;48.208;-1.518;2023-12-07T19:22:40;9.00;99.90
31809;DHT22;18379;48.208;-1.518;2023-12-07T19:27:40;9.00;99.90
31809;DHT22;18379;48.208;-1.518;2023-12-07T19:32:41;9.00;99.90
31809;DHT22;18379;48.208;-1.518;2023-12-07T19:37:42;9.00;99.90
31809;DHT22;18379;48.208;-1.518;2023-12-07T19:42:42;9.10;99.90
31809;DHT22;18379;48.208;-1.518;2023-12-07T19:47:43;9.10;99.90
31809;DHT22;18379;48.208;-1.518;2023-12-07T19:52:44;9.10;99.90
31809;DHT22;18379;48.208;-1.518;2023-12-07T19:57:44;9.10;99.90
31809;DHT22;18379;48.208;-1.518;2023-12-07T20:02:45;9.00;99.90
31809;DHT22;18379;48.208;-1.518;2023-12-07T20:07:45;9.10;99.90
31809;DHT22;18379;48.208;-1.518;2023-12-07T20:12:49;9.10;99.90
31809;DHT22;18379;48.208;-1.518;2023-12-07T20:17:50;9.10;99.90
31809;DHT22;18379;48.208;-1.518;2023-12-07T20:22:51;9.10;99.90
31809;DHT22;18379;48.208;-1.518;2023-12-07T20:27:51;9.10;99.90
31809;DHT22;18379;48.208;-1.518;2023-12-07T20:32:52;9.20;99.90
31809;DHT22;18379;48.208;-1.518;2023-12-07T20:37:52;9.20;99.90
31809;DHT22;18379;48.208;-1.518;2023-12-07T20:42:53;9.30;99.90
31809;DHT22;18379;48.208;-1.518;2023-12-07T20:47:54;9.30;99.90
31809;DHT22;18379;48.208;-1.518;2023-12-07T20:52:54;9.40;99.90
31809;DHT22;18379;48.208;-1.518;2023-12-07T20:57:55;9.40;99.90
31809;DHT22;18379;48.208;-1.518;2023-12-07T21:02:56;9.40;99.90
31809;DHT22;18379;48.208;-1.518;2023-12-07T21:07:59;9.40;99.90
31809;DHT22;18379;48.208;-1.518;2023-12-07T21:13:00;9.40;99.90
31809;DHT22;18379;48.208;-1.518;2023-12-07T21:18:00;9.50;99.90
31809;DHT22;18379;48.208;-1.518;2023-12-07T21:23:01;9.60;99.90
31809;DHT22;18379;48.208;-1.518;2023-12-07T21:28:02;9.60;99.90
31809;DHT22;18379;48.208;-1.518;2023-12-07T21:33:03;9.60;99.90
31809;DHT22;18379;48.208;-1.518;2023-12-07T21:38:04;9.60;99.90
31809;DHT22;18379;48.208;-1.518;2023-12-07T21:43:05;9.70;99.90
31809;DHT22;18379;48.208;-1.518;2023-12-07T21:48:06;9.70;99.90
31809;DHT22;18379;48.208;-1.518;2023-12-07T21:53:07;9.70;99.90
31809;DHT22;18379;48.208;-1.518;2023-12-07T21:58:08;9.70;99.90
31809;DHT22;18379;48.208;-1.518;2023-12-07T22:03:08;9.70;99.90
31809;DHT22;18379;48.208;-1.518;2023-12-07T22:08:09;9.70;99.90
31809;DHT22;18379;48.208;-1.518;2023-12-07T22:13:10;9.80;99.90
31809;DHT22;18379;48.208;-1.518;2023-12-07T22:18:10;9.70;99.90
31809;DHT22;18379;48.208;-1.518;2023-12-07T22:23:11;9.80;99.90
31809;DHT22;18379;48.208;-1.518;2023-12-07T22:28:11;9.90;99.90
31809;DHT22;18379;48.208;-1.518;2023-12-07T22:33:12;9.90;99.90
31809;DHT22;18379;48.208;-1.518;2023-12-07T22:38:13;9.90;99.90
31809;DHT22;18379;48.208;-1.518;2023-12-07T22:43:14;10.00;99.90
31809;DHT22;18379;48.208;-1.518;2023-12-07T22:48:14;10.00;99.90
31809;DHT22;18379;48.208;-1.518;2023-12-07T22:53:15;10.00;99.90
31809;DHT22;18379;48.208;-1.518;2023-12-07T22:58:16;10.00;99.90
31809;DHT22;18379;48.208;-1.518;2023-12-07T23:03:16;9.90;99.90
31809;DHT22;18379;48.208;-1.518;2023-12-07T23:08:17;9.90;99.90
31809;DHT22;18379;48.208;-1.518;2023-12-07T23:13:18;9.90;99.90
31809;DHT22;18379;48.208;-1.518;2023-12-07T23:18:18;9.90;99.90
31809;DHT22;18379;48.208;-1.518;2023-12-07T23:23:20;9.90;99.90
31809;DHT22;18379;48.208;-1.518;2023-12-07T23:28:21;9.90;99.90
31809;DHT22;18379;48.208;-1.518;2023-12-07T23:33:21;9.90;99.90
31809;DHT22;18379;48.208;-1.518;2023-12-07T23:38:22;10.10;99.90
31809;DHT22;18379;48.208;-1.518;2023-12-07T23:43:23;10.00;99.90
31809;DHT22;18379;48.208;-1.518;2023-12-07T23:48:23;10.10;99.90
31809;DHT22;18379;48.208;-1.518;2023-12-07T23:53:24;10.20;99.90
31809;DHT22;18379;48.208;-1.518;2023-12-07T23:58:24;10.20;99.90
